Terminal Aerodrome Forecast
Issued by NWS Tuscon, AZ

Home | Current Version | Previous Version | Text Only | Print | Product List | Glossary On
Versions: 1 2 3 4 5 6 7 8 9 10 11 12
412
FTUS45 KTWC 080520
TAFDUG
TAF
KDUG 080520Z 0806/0906 02008KT P6SM FEW130 BKN200
     FM080900 VRB04KT P6SM SCT200
     FM081900 10010KT P6SM FEW060 SCT250
     FM090200 05006KT P6SM SCT250=

USA.gov is the U.S. government's official web portal to all federal, state and local government web resources and services.